Aérodrome :
LOGIN :

S'inscrire | Disclaimer

   EN    FR    IT 

 










Légende :    VFR   VFR Marginal   IFR   IFR Intensif   IFR Très Intensif
Visi : 
Plafond : 
>= 8 km
>= 3000ft
5 à 8 km
1000 à 3000 ft
1500m à 5 km
500 à 1000 ft
800 à 1500m
200 à 500 ft
< 800m
< 200 ft
Symboles :   Orages  Brouillard  Fortes neiges  Fortes précipitations  Vent > 20 kt
SIGMETs :   Divers  Orages  Givrage  Turbulence  Onde Orograph.  Cendres Volcan.







- Altitude de l'aérodrome : 456 ft
- Code IATA : QPZ


LIMS - San Damiano Air Base Piacenza

DERNIER METAR :
  • 251455Z 12017KT 4500 SG BR SCT020 BKN030 00/M04 Q1012 RMK OVC VIS MIN 4500 WIND THR30 /////KT GRN

METARs EXPIRÉS :
  • 251355Z 13017KT 8000 SCT030 BKN040 01/M04 Q1012 RMK OVC VIS MIN 8000 WIND THR30 /////KT BLU
  • 251255Z 12015KT 8000 FEW025 BKN050 01/M04 Q1012 RMK OVC VIS MIN 8000 WIND THR30 /////KT BLU

Prévision TAF périmée.
Pas de NOTAMs connus pour ce terrain.
3 SIGMETs publiés pour la FIR Milano (LIMM) :
 
Orages noyés dans la masse
LIMM SIGMET 9 VALID 251330/251730 LIIP
LIMM MILANO FIR EMBD TS FCST WI N4359 E00854 - N4331 E01008 - N4311 E00945 - N4341 E00750 - N4359 E00854 TOP FL240 STNR NC=
Givrage fort
LIMM SIGMET 8 VALID 251330/251730 LIIP
LIMM MILANO FIR SEV ICE FCST S OF LINE N4522 E00659 - N4438 E01324 ABV FL020 STNR NC=
Turbulence forte
LIMM SIGMET 7 VALID 251330/251730 LIIP
LIMM MILANO FIR SEV TURB FCST WI N4635 E01342 - N4538 E01354 - N4538 E01331 - N4518 E01258 - N4431 E01320 - N4333 E01430 - N4337 E01255 - N4425 E01043 - N4453 E00911 - N4527 E00753 - N4551 E00855 - N4551 E01116 - N4635 E01342 SFC/FL060 STNR NC=



MET'MAP, la Météo Aéronautique d'un coup d'oeil ! - Copyright ORBIFLY Décembre 2007 - Disclaimer

ORBIFLY MET'MAP TEAM :

Programmation & Développement : Alexandra Zaïnal
Conception & Développement : Baudouin d'Aumeries
Co-Programmation & Développement : Marc-Olivier Méhu
Soutien technique & logistique : Manuel Goepfert

Contact : metmap@orbifly.com




SOURCES & CREDITS :

   NOAA